sensor_id;sensor_type;location;lat;lon;timestamp;P1;durP1;ratioP1;P2;durP2;ratioP2
41887;SDS011;63122;52.424;13.458;2023-06-14T00:01:50;7.28;;;2.60;;
41887;SDS011;63122;52.424;13.458;2023-06-14T00:03:45;7.25;;;2.33;;
41887;SDS011;63122;52.424;13.458;2023-06-14T00:05:41;4.00;;;2.55;;
41887;SDS011;63122;52.424;13.458;2023-06-14T00:07:39;5.95;;;2.60;;
41887;SDS011;63122;52.424;13.458;2023-06-14T00:09:43;6.75;;;2.50;;
41887;SDS011;63122;52.424;13.458;2023-06-14T00:11:38;5.90;;;2.50;;
41887;SDS011;63122;52.424;13.458;2023-06-14T00:13:33;6.85;;;2.67;;
41887;SDS011;63122;52.424;13.458;2023-06-14T00:15:30;8.05;;;2.63;;
41887;SDS011;63122;52.424;13.458;2023-06-14T00:17:25;5.90;;;2.40;;
41887;SDS011;63122;52.424;13.458;2023-06-14T00:19:22;7.53;;;2.60;;
41887;SDS011;63122;52.424;13.458;2023-06-14T00:21:17;6.20;;;2.67;;
41887;SDS011;63122;52.424;13.458;2023-06-14T00:23:13;9.48;;;3.53;;
41887;SDS011;63122;52.424;13.458;2023-06-14T00:25:11;5.80;;;3.88;;
41887;SDS011;63122;52.424;13.458;2023-06-14T00:27:20;6.63;;;3.30;;
41887;SDS011;63122;52.424;13.458;2023-06-14T00:29:16;6.60;;;3.35;;
41887;SDS011;63122;52.424;13.458;2023-06-14T00:31:12;8.45;;;2.88;;
41887;SDS011;63122;52.424;13.458;2023-06-14T00:33:07;4.97;;;2.97;;
41887;SDS011;63122;52.424;13.458;2023-06-14T00:35:03;4.05;;;3.00;;
41887;SDS011;63122;52.424;13.458;2023-06-14T00:37:00;5.07;;;2.80;;
41887;SDS011;63122;52.424;13.458;2023-06-14T00:38:56;5.10;;;2.28;;
41887;SDS011;63122;52.424;13.458;2023-06-14T00:40:55;4.85;;;2.90;;
41887;SDS011;63122;52.424;13.458;2023-06-14T00:42:50;4.10;;;2.55;;
41887;SDS011;63122;52.424;13.458;2023-06-14T00:44:46;6.47;;;2.88;;
41887;SDS011;63122;52.424;13.458;2023-06-14T00:46:41;4.40;;;3.10;;
41887;SDS011;63122;52.424;13.458;2023-06-14T00:48:37;13.23;;;3.72;;
41887;SDS011;63122;52.424;13.458;2023-06-14T00:50:35;5.78;;;3.05;;
41887;SDS011;63122;52.424;13.458;2023-06-14T00:52:32;4.55;;;2.75;;
41887;SDS011;63122;52.424;13.458;2023-06-14T00:54:28;5.32;;;3.13;;
41887;SDS011;63122;52.424;13.458;2023-06-14T00:56:26;7.57;;;2.88;;
41887;SDS011;63122;52.424;13.458;2023-06-14T00:58:22;4.25;;;2.83;;
41887;SDS011;63122;52.424;13.458;2023-06-14T01:00:15;6.72;;;2.95;;
41887;SDS011;63122;52.424;13.458;2023-06-14T01:02:11;8.55;;;3.05;;
41887;SDS011;63122;52.424;13.458;2023-06-14T01:04:07;5.63;;;3.08;;
41887;SDS011;63122;52.424;13.458;2023-06-14T01:06:05;7.72;;;3.10;;
41887;SDS011;63122;52.424;13.458;2023-06-14T01:08:21;6.32;;;2.50;;
41887;SDS011;63122;52.424;13.458;2023-06-14T01:10:28;7.18;;;3.13;;
41887;SDS011;63122;52.424;13.458;2023-06-14T01:12:34;4.93;;;2.90;;
41887;SDS011;63122;52.424;13.458;2023-06-14T01:14:33;6.95;;;2.72;;
41887;SDS011;63122;52.424;13.458;2023-06-14T01:16:30;13.35;;;3.15;;
41887;SDS011;63122;52.424;13.458;2023-06-14T01:18:28;5.53;;;3.13;;
41887;SDS011;63122;52.424;13.458;2023-06-14T01:20:26;5.70;;;2.80;;
41887;SDS011;63122;52.424;13.458;2023-06-14T01:22:24;5.43;;;3.50;;
41887;SDS011;63122;52.424;13.458;2023-06-14T01:24:23;8.23;;;4.97;;
41887;SDS011;63122;52.424;13.458;2023-06-14T01:26:24;5.85;;;3.70;;
41887;SDS011;63122;52.424;13.458;2023-06-14T01:28:21;17.23;;;4.18;;
41887;SDS011;63122;52.424;13.458;2023-06-14T01:30:16;4.95;;;3.58;;
41887;SDS011;63122;52.424;13.458;2023-06-14T01:32:13;4.88;;;3.53;;
41887;SDS011;63122;52.424;13.458;2023-06-14T01:34:10;8.68;;;3.60;;
41887;SDS011;63122;52.424;13.458;2023-06-14T01:36:05;7.00;;;3.58;;
41887;SDS011;63122;52.424;13.458;2023-06-14T01:38:02;4.63;;;3.22;;
41887;SDS011;63122;52.424;13.458;2023-06-14T01:40:03;8.35;;;3.40;;
41887;SDS011;63122;52.424;13.458;2023-06-14T01:41:59;8.05;;;3.95;;
41887;SDS011;63122;52.424;13.458;2023-06-14T01:43:55;12.52;;;4.28;;
41887;SDS011;63122;52.424;13.458;2023-06-14T01:45:52;5.90;;;3.55;;
41887;SDS011;63122;52.424;13.458;2023-06-14T01:47:49;11.18;;;3.65;;
41887;SDS011;63122;52.424;13.458;2023-06-14T01:49:46;8.48;;;3.40;;
41887;SDS011;63122;52.424;13.458;2023-06-14T01:51:41;8.60;;;3.60;;
41887;SDS011;63122;52.424;13.458;2023-06-14T01:53:37;6.60;;;3.70;;
41887;SDS011;63122;52.424;13.458;2023-06-14T01:55:35;8.80;;;3.42;;
41887;SDS011;63122;52.424;13.458;2023-06-14T01:57:35;4.97;;;3.58;;
41887;SDS011;63122;52.424;13.458;2023-06-14T01:59:30;6.20;;;3.78;;
41887;SDS011;63122;52.424;13.458;2023-06-14T02:01:26;5.60;;;3.30;;
41887;SDS011;63122;52.424;13.458;2023-06-14T02:03:23;6.75;;;3.60;;
41887;SDS011;63122;52.424;13.458;2023-06-14T02:05:19;9.05;;;3.53;;
41887;SDS011;63122;52.424;13.458;2023-06-14T02:07:14;5.15;;;3.55;;
41887;SDS011;63122;52.424;13.458;2023-06-14T02:09:09;6.55;;;3.50;;
41887;SDS011;63122;52.424;13.458;2023-06-14T02:11:08;7.93;;;3.60;;
41887;SDS011;63122;52.424;13.458;2023-06-14T02:13:03;8.52;;;3.55;;
41887;SDS011;63122;52.424;13.458;2023-06-14T02:14:58;6.68;;;3.50;;
41887;SDS011;63122;52.424;13.458;2023-06-14T02:16:53;5.15;;;3.10;;
41887;SDS011;63122;52.424;13.458;2023-06-14T02:18:49;8.10;;;3.28;;
41887;SDS011;63122;52.424;13.458;2023-06-14T02:20:44;8.98;;;3.65;;
41887;SDS011;63122;52.424;13.458;2023-06-14T02:22:40;5.20;;;3.20;;
41887;SDS011;63122;52.424;13.458;2023-06-14T02:24:35;10.07;;;4.15;;
41887;SDS011;63122;52.424;13.458;2023-06-14T02:26:33;8.25;;;3.42;;
41887;SDS011;63122;52.424;13.458;2023-06-14T02:28:29;4.45;;;3.50;;
41887;SDS011;63122;52.424;13.458;2023-06-14T02:30:25;11.15;;;3.88;;
41887;SDS011;63122;52.424;13.458;2023-06-14T02:32:20;4.57;;;3.47;;
41887;SDS011;63122;52.424;13.458;2023-06-14T02:34:16;6.43;;;3.92;;
41887;SDS011;63122;52.424;13.458;2023-06-14T02:36:12;12.20;;;4.32;;
41887;SDS011;63122;52.424;13.458;2023-06-14T02:38:07;7.45;;;4.43;;
41887;SDS011;63122;52.424;13.458;2023-06-14T02:40:04;7.45;;;4.13;;
41887;SDS011;63122;52.424;13.458;2023-06-14T02:42:04;14.27;;;4.18;;
41887;SDS011;63122;52.424;13.458;2023-06-14T02:43:59;12.23;;;3.90;;
41887;SDS011;63122;52.424;13.458;2023-06-14T02:45:55;6.57;;;4.22;;
41887;SDS011;63122;52.424;13.458;2023-06-14T02:47:50;10.70;;;4.15;;
41887;SDS011;63122;52.424;13.458;2023-06-14T02:49:45;11.32;;;4.20;;
41887;SDS011;63122;52.424;13.458;2023-06-14T02:51:41;7.43;;;5.07;;
41887;SDS011;63122;52.424;13.458;2023-06-14T02:53:37;10.23;;;4.13;;
41887;SDS011;63122;52.424;13.458;2023-06-14T02:55:32;8.98;;;4.18;;
41887;SDS011;63122;52.424;13.458;2023-06-14T02:57:34;9.48;;;4.40;;
41887;SDS011;63122;52.424;13.458;2023-06-14T02:59:29;6.18;;;4.20;;
41887;SDS011;63122;52.424;13.458;2023-06-14T03:01:25;10.70;;;4.57;;
41887;SDS011;63122;52.424;13.458;2023-06-14T03:03:26;24.15;;;17.30;;
41887;SDS011;63122;52.424;13.458;2023-06-14T03:05:22;9.98;;;4.45;;
41887;SDS011;63122;52.424;13.458;2023-06-14T03:07:20;8.73;;;4.15;;
41887;SDS011;63122;52.424;13.458;2023-06-14T03:09:18;7.55;;;4.55;;
41887;SDS011;63122;52.424;13.458;2023-06-14T03:11:13;12.77;;;4.00;;
41887;SDS011;63122;52.424;13.458;2023-06-14T03:13:11;7.32;;;4.18;;
41887;SDS011;63122;52.424;13.458;2023-06-14T03:15:08;8.98;;;4.00;;
41887;SDS011;63122;52.424;13.458;2023-06-14T03:17:05;8.57;;;4.15;;
41887;SDS011;63122;52.424;13.458;2023-06-14T03:19:02;6.20;;;4.30;;
41887;SDS011;63122;52.424;13.458;2023-06-14T03:20:57;8.10;;;4.40;;
41887;SDS011;63122;52.424;13.458;2023-06-14T03:22:52;9.68;;;4.32;;
41887;SDS011;63122;52.424;13.458;2023-06-14T03:24:48;8.25;;;4.65;;
41887;SDS011;63122;52.424;13.458;2023-06-14T03:26:44;8.35;;;4.22;;
41887;SDS011;63122;52.424;13.458;2023-06-14T03:28:42;10.50;;;4.65;;
41887;SDS011;63122;52.424;13.458;2023-06-14T03:30:37;7.72;;;4.40;;
41887;SDS011;63122;52.424;13.458;2023-06-14T03:32:33;11.55;;;5.47;;
41887;SDS011;63122;52.424;13.458;2023-06-14T03:34:28;7.78;;;5.47;;
41887;SDS011;63122;52.424;13.458;2023-06-14T03:36:23;6.95;;;4.68;;
41887;SDS011;63122;52.424;13.458;2023-06-14T03:38:19;5.88;;;4.65;;
41887;SDS011;63122;52.424;13.458;2023-06-14T03:40:18;11.05;;;5.03;;
41887;SDS011;63122;52.424;13.458;2023-06-14T03:42:14;11.13;;;6.75;;
41887;SDS011;63122;52.424;13.458;2023-06-14T03:44:13;8.43;;;4.90;;
41887;SDS011;63122;52.424;13.458;2023-06-14T03:46:10;9.27;;;6.07;;
41887;SDS011;63122;52.424;13.458;2023-06-14T03:48:05;8.40;;;4.70;;
41887;SDS011;63122;52.424;13.458;2023-06-14T03:50:01;9.35;;;5.10;;
41887;SDS011;63122;52.424;13.458;2023-06-14T03:51:58;9.35;;;4.38;;
41887;SDS011;63122;52.424;13.458;2023-06-14T03:53:54;11.27;;;5.13;;
41887;SDS011;63122;52.424;13.458;2023-06-14T03:56:10;8.00;;;4.78;;
41887;SDS011;63122;52.424;13.458;2023-06-14T03:58:05;11.82;;;6.63;;
41887;SDS011;63122;52.424;13.458;2023-06-14T04:00:04;9.13;;;5.18;;
41887;SDS011;63122;52.424;13.458;2023-06-14T04:02:00;10.30;;;5.30;;
41887;SDS011;63122;52.424;13.458;2023-06-14T04:03:56;7.88;;;5.07;;
41887;SDS011;63122;52.424;13.458;2023-06-14T04:05:53;9.48;;;5.35;;
41887;SDS011;63122;52.424;13.458;2023-06-14T04:07:49;6.68;;;5.40;;
41887;SDS011;63122;52.424;13.458;2023-06-14T04:09:44;10.32;;;4.93;;
41887;SDS011;63122;52.424;13.458;2023-06-14T04:11:39;10.38;;;5.30;;
41887;SDS011;63122;52.424;13.458;2023-06-14T04:13:34;9.15;;;5.72;;
41887;SDS011;63122;52.424;13.458;2023-06-14T04:15:34;7.57;;;5.00;;
41887;SDS011;63122;52.424;13.458;2023-06-14T04:17:29;6.28;;;4.80;;
41887;SDS011;63122;52.424;13.458;2023-06-14T04:19:25;7.30;;;5.43;;
41887;SDS011;63122;52.424;13.458;2023-06-14T04:21:19;6.45;;;5.00;;
41887;SDS011;63122;52.424;13.458;2023-06-14T04:23:16;7.30;;;4.50;;
41887;SDS011;63122;52.424;13.458;2023-06-14T04:25:14;11.27;;;5.35;;
41887;SDS011;63122;52.424;13.458;2023-06-14T04:27:15;8.57;;;4.90;;
41887;SDS011;63122;52.424;13.458;2023-06-14T04:29:13;9.55;;;5.63;;
41887;SDS011;63122;52.424;13.458;2023-06-14T04:31:14;12.95;;;6.28;;
41887;SDS011;63122;52.424;13.458;2023-06-14T04:33:10;7.90;;;6.05;;
41887;SDS011;63122;52.424;13.458;2023-06-14T04:35:06;10.93;;;5.35;;
41887;SDS011;63122;52.424;13.458;2023-06-14T04:37:03;11.35;;;5.65;;
41887;SDS011;63122;52.424;13.458;2023-06-14T04:39:00;12.52;;;6.18;;
41887;SDS011;63122;52.424;13.458;2023-06-14T04:40:55;8.13;;;5.10;;
41887;SDS011;63122;52.424;13.458;2023-06-14T04:42:53;15.27;;;6.78;;
41887;SDS011;63122;52.424;13.458;2023-06-14T04:44:49;11.75;;;5.20;;
41887;SDS011;63122;52.424;13.458;2023-06-14T04:46:49;11.05;;;5.80;;
41887;SDS011;63122;52.424;13.458;2023-06-14T04:48:45;13.52;;;5.47;;
41887;SDS011;63122;52.424;13.458;2023-06-14T04:50:42;20.30;;;5.93;;
41887;SDS011;63122;52.424;13.458;2023-06-14T04:52:37;16.98;;;6.20;;
41887;SDS011;63122;52.424;13.458;2023-06-14T04:54:33;13.77;;;6.22;;
41887;SDS011;63122;52.424;13.458;2023-06-14T04:56:31;10.30;;;5.43;;
41887;SDS011;63122;52.424;13.458;2023-06-14T04:58:27;12.45;;;5.75;;
41887;SDS011;63122;52.424;13.458;2023-06-14T05:00:22;13.50;;;7.85;;
41887;SDS011;63122;52.424;13.458;2023-06-14T05:02:21;9.13;;;5.50;;
41887;SDS011;63122;52.424;13.458;2023-06-14T05:04:18;7.50;;;5.75;;
41887;SDS011;63122;52.424;13.458;2023-06-14T05:06:14;17.75;;;6.15;;
41887;SDS011;63122;52.424;13.458;2023-06-14T05:08:10;9.43;;;6.30;;
41887;SDS011;63122;52.424;13.458;2023-06-14T05:10:05;11.90;;;6.55;;
41887;SDS011;63122;52.424;13.458;2023-06-14T05:12:02;12.30;;;6.40;;
41887;SDS011;63122;52.424;13.458;2023-06-14T05:14:02;8.60;;;6.03;;
41887;SDS011;63122;52.424;13.458;2023-06-14T05:15:58;11.60;;;5.60;;
41887;SDS011;63122;52.424;13.458;2023-06-14T05:17:57;8.00;;;5.78;;
41887;SDS011;63122;52.424;13.458;2023-06-14T05:19:53;12.85;;;5.65;;
41887;SDS011;63122;52.424;13.458;2023-06-14T05:21:48;11.07;;;5.75;;
41887;SDS011;63122;52.424;13.458;2023-06-14T05:23:43;12.13;;;5.85;;
41887;SDS011;63122;52.424;13.458;2023-06-14T05:25:39;10.02;;;5.63;;
41887;SDS011;63122;52.424;13.458;2023-06-14T05:27:34;11.13;;;5.57;;
41887;SDS011;63122;52.424;13.458;2023-06-14T05:29:29;11.02;;;6.18;;
41887;SDS011;63122;52.424;13.458;2023-06-14T05:31:24;13.35;;;7.00;;
41887;SDS011;63122;52.424;13.458;2023-06-14T05:33:23;15.73;;;8.15;;
41887;SDS011;63122;52.424;13.458;2023-06-14T05:35:18;13.98;;;6.88;;
41887;SDS011;63122;52.424;13.458;2023-06-14T05:37:15;10.65;;;6.07;;
41887;SDS011;63122;52.424;13.458;2023-06-14T05:39:10;12.68;;;5.93;;
41887;SDS011;63122;52.424;13.458;2023-06-14T05:41:06;9.85;;;6.10;;
41887;SDS011;63122;52.424;13.458;2023-06-14T05:43:01;12.10;;;6.13;;
41887;SDS011;63122;52.424;13.458;2023-06-14T05:44:56;12.50;;;6.13;;
41887;SDS011;63122;52.424;13.458;2023-06-14T05:46:51;18.65;;;6.05;;
41887;SDS011;63122;52.424;13.458;2023-06-14T05:48:49;10.85;;;6.57;;
41887;SDS011;63122;52.424;13.458;2023-06-14T05:50:44;12.95;;;6.20;;
41887;SDS011;63122;52.424;13.458;2023-06-14T05:52:40;11.52;;;6.45;;
41887;SDS011;63122;52.424;13.458;2023-06-14T05:54:35;10.15;;;6.07;;
41887;SDS011;63122;52.424;13.458;2023-06-14T05:56:30;10.65;;;5.90;;
41887;SDS011;63122;52.424;13.458;2023-06-14T05:58:26;8.52;;;5.75;;
41887;SDS011;63122;52.424;13.458;2023-06-14T06:00:22;9.82;;;5.90;;
41887;SDS011;63122;52.424;13.458;2023-06-14T06:02:17;14.60;;;6.05;;
41887;SDS011;63122;52.424;13.458;2023-06-14T06:04:15;9.35;;;6.22;;
41887;SDS011;63122;52.424;13.458;2023-06-14T06:06:10;18.73;;;5.47;;
41887;SDS011;63122;52.424;13.458;2023-06-14T06:08:06;11.55;;;5.45;;
41887;SDS011;63122;52.424;13.458;2023-06-14T06:10:01;17.35;;;5.65;;
41887;SDS011;63122;52.424;13.458;2023-06-14T06:11:57;16.60;;;6.00;;
41887;SDS011;63122;52.424;13.458;2023-06-14T06:13:53;11.05;;;6.55;;
41887;SDS011;63122;52.424;13.458;2023-06-14T06:15:48;10.93;;;5.82;;
41887;SDS011;63122;52.424;13.458;2023-06-14T06:17:43;12.05;;;6.07;;
41887;SDS011;63122;52.424;13.458;2023-06-14T06:19:50;14.30;;;5.88;;
41887;SDS011;63122;52.424;13.458;2023-06-14T06:21:45;17.15;;;6.05;;
41887;SDS011;63122;52.424;13.458;2023-06-14T06:23:40;20.05;;;5.97;;
41887;SDS011;63122;52.424;13.458;2023-06-14T06:25:36;7.63;;;5.45;;
41887;SDS011;63122;52.424;13.458;2023-06-14T06:27:31;14.65;;;5.78;;
41887;SDS011;63122;52.424;13.458;2023-06-14T06:29:28;8.57;;;6.00;;
41887;SDS011;63122;52.424;13.458;2023-06-14T06:31:23;15.38;;;6.07;;
41887;SDS011;63122;52.424;13.458;2023-06-14T06:33:19;13.13;;;6.18;;
41887;SDS011;63122;52.424;13.458;2023-06-14T06:35:18;11.63;;;6.55;;
41887;SDS011;63122;52.424;13.458;2023-06-14T06:37:13;14.50;;;6.22;;
41887;SDS011;63122;52.424;13.458;2023-06-14T06:39:08;14.98;;;6.57;;
41887;SDS011;63122;52.424;13.458;2023-06-14T06:41:04;20.98;;;6.05;;
41887;SDS011;63122;52.424;13.458;2023-06-14T06:42:59;22.40;;;5.80;;
41887;SDS011;63122;52.424;13.458;2023-06-14T06:44:55;20.80;;;6.28;;
41887;SDS011;63122;52.424;13.458;2023-06-14T06:46:50;11.27;;;5.80;;
41887;SDS011;63122;52.424;13.458;2023-06-14T06:48:45;14.77;;;6.18;;
41887;SDS011;63122;52.424;13.458;2023-06-14T06:50:43;16.50;;;9.05;;
41887;SDS011;63122;52.424;13.458;2023-06-14T06:52:38;14.30;;;5.88;;
41887;SDS011;63122;52.424;13.458;2023-06-14T06:54:34;11.60;;;5.90;;
41887;SDS011;63122;52.424;13.458;2023-06-14T06:56:29;10.15;;;5.90;;
41887;SDS011;63122;52.424;13.458;2023-06-14T06:58:24;11.43;;;5.93;;
41887;SDS011;63122;52.424;13.458;2023-06-14T07:00:20;9.27;;;5.82;;
41887;SDS011;63122;52.424;13.458;2023-06-14T07:02:19;16.33;;;5.68;;
41887;SDS011;63122;52.424;13.458;2023-06-14T07:04:14;14.20;;;5.50;;
41887;SDS011;63122;52.424;13.458;2023-06-14T07:06:12;12.93;;;5.65;;
41887;SDS011;63122;52.424;13.458;2023-06-14T07:08:10;10.13;;;5.40;;
41887;SDS011;63122;52.424;13.458;2023-06-14T07:10:06;13.93;;;5.80;;
41887;SDS011;63122;52.424;13.458;2023-06-14T07:12:03;11.88;;;5.78;;
41887;SDS011;63122;52.424;13.458;2023-06-14T07:13:58;8.88;;;5.70;;
41887;SDS011;63122;52.424;13.458;2023-06-14T07:15:54;7.32;;;5.93;;
41887;SDS011;63122;52.424;13.458;2023-06-14T07:17:53;11.70;;;6.05;;
41887;SDS011;63122;52.424;13.458;2023-06-14T07:19:52;11.77;;;6.13;;
41887;SDS011;63122;52.424;13.458;2023-06-14T07:21:50;12.73;;;5.93;;
41887;SDS011;63122;52.424;13.458;2023-06-14T07:23:45;11.88;;;5.30;;
41887;SDS011;63122;52.424;13.458;2023-06-14T07:25:41;12.55;;;5.20;;
41887;SDS011;63122;52.424;13.458;2023-06-14T07:27:36;12.80;;;5.15;;
41887;SDS011;63122;52.424;13.458;2023-06-14T07:29:31;12.95;;;5.15;;
41887;SDS011;63122;52.424;13.458;2023-06-14T07:31:27;11.88;;;5.20;;
41887;SDS011;63122;52.424;13.458;2023-06-14T07:33:22;7.47;;;4.95;;
41887;SDS011;63122;52.424;13.458;2023-06-14T07:35:18;10.40;;;5.05;;
41887;SDS011;63122;52.424;13.458;2023-06-14T07:37:15;13.57;;;4.93;;
41887;SDS011;63122;52.424;13.458;2023-06-14T07:39:11;9.00;;;5.28;;
41887;SDS011;63122;52.424;13.458;2023-06-14T07:41:06;7.13;;;5.10;;
41887;SDS011;63122;52.424;13.458;2023-06-14T07:43:02;11.20;;;4.78;;
41887;SDS011;63122;52.424;13.458;2023-06-14T07:44:57;11.70;;;5.00;;
41887;SDS011;63122;52.424;13.458;2023-06-14T07:46:53;15.23;;;5.05;;
41887;SDS011;63122;52.424;13.458;2023-06-14T07:48:49;15.93;;;4.78;;
41887;SDS011;63122;52.424;13.458;2023-06-14T07:50:45;16.92;;;4.85;;
41887;SDS011;63122;52.424;13.458;2023-06-14T07:52:43;7.68;;;4.68;;
41887;SDS011;63122;52.424;13.458;2023-06-14T07:54:41;19.15;;;5.00;;
41887;SDS011;63122;52.424;13.458;2023-06-14T07:56:36;17.92;;;4.25;;
41887;SDS011;63122;52.424;13.458;2023-06-14T07:58:35;7.47;;;4.78;;
41887;SDS011;63122;52.424;13.458;2023-06-14T08:00:30;13.93;;;5.22;;
41887;SDS011;63122;52.424;13.458;2023-06-14T08:02:26;15.10;;;7.97;;
41887;SDS011;63122;52.424;13.458;2023-06-14T08:04:21;8.88;;;5.22;;
41887;SDS011;63122;52.424;13.458;2023-06-14T08:06:17;8.00;;;4.97;;
41887;SDS011;63122;52.424;13.458;2023-06-14T08:08:15;15.98;;;4.72;;
41887;SDS011;63122;52.424;13.458;2023-06-14T08:10:11;7.07;;;4.65;;
41887;SDS011;63122;52.424;13.458;2023-06-14T08:12:07;13.55;;;4.72;;
41887;SDS011;63122;52.424;13.458;2023-06-14T08:14:03;8.75;;;4.63;;
41887;SDS011;63122;52.424;13.458;2023-06-14T08:15:59;11.93;;;5.10;;
41887;SDS011;63122;52.424;13.458;2023-06-14T08:17:57;9.63;;;4.80;;
41887;SDS011;63122;52.424;13.458;2023-06-14T08:19:53;9.13;;;4.72;;
41887;SDS011;63122;52.424;13.458;2023-06-14T08:21:49;12.80;;;5.60;;
41887;SDS011;63122;52.424;13.458;2023-06-14T08:23:49;9.40;;;6.32;;
41887;SDS011;63122;52.424;13.458;2023-06-14T08:25:45;9.48;;;5.47;;
41887;SDS011;63122;52.424;13.458;2023-06-14T08:27:40;7.95;;;5.35;;
41887;SDS011;63122;52.424;13.458;2023-06-14T08:29:36;9.35;;;4.60;;
41887;SDS011;63122;52.424;13.458;2023-06-14T08:31:33;16.58;;;4.80;;
41887;SDS011;63122;52.424;13.458;2023-06-14T08:33:29;7.15;;;4.20;;
41887;SDS011;63122;52.424;13.458;2023-06-14T08:35:25;7.15;;;3.85;;
41887;SDS011;63122;52.424;13.458;2023-06-14T08:37:20;6.65;;;4.22;;
41887;SDS011;63122;52.424;13.458;2023-06-14T08:39:18;6.72;;;4.40;;
41887;SDS011;63122;52.424;13.458;2023-06-14T08:41:14;6.32;;;3.58;;
41887;SDS011;63122;52.424;13.458;2023-06-14T08:43:16;9.70;;;4.07;;
41887;SDS011;63122;52.424;13.458;2023-06-14T08:45:12;10.73;;;3.75;;
41887;SDS011;63122;52.424;13.458;2023-06-14T08:47:08;8.35;;;3.42;;
41887;SDS011;63122;52.424;13.458;2023-06-14T08:49:04;16.13;;;4.13;;
41887;SDS011;63122;52.424;13.458;2023-06-14T08:51:00;8.23;;;3.85;;
41887;SDS011;63122;52.424;13.458;2023-06-14T08:52:57;7.68;;;3.63;;
41887;SDS011;63122;52.424;13.458;2023-06-14T08:54:58;16.98;;;4.10;;
41887;SDS011;63122;52.424;13.458;2023-06-14T08:56:54;14.30;;;4.13;;
41887;SDS011;63122;52.424;13.458;2023-06-14T08:58:50;10.75;;;3.97;;
41887;SDS011;63122;52.424;13.458;2023-06-14T09:00:46;10.50;;;4.03;;
41887;SDS011;63122;52.424;13.458;2023-06-14T09:02:44;13.20;;;3.72;;
41887;SDS011;63122;52.424;13.458;2023-06-14T09:04:39;12.52;;;3.80;;
41887;SDS011;63122;52.424;13.458;2023-06-14T09:06:35;6.80;;;3.35;;
41887;SDS011;63122;52.424;13.458;2023-06-14T09:08:31;9.98;;;3.42;;
41887;SDS011;63122;52.424;13.458;2023-06-14T09:10:28;9.77;;;3.38;;
41887;SDS011;63122;52.424;13.458;2023-06-14T09:12:30;8.75;;;3.22;;
41887;SDS011;63122;52.424;13.458;2023-06-14T09:14:26;11.23;;;3.85;;
41887;SDS011;63122;52.424;13.458;2023-06-14T09:16:21;14.38;;;3.63;;
41887;SDS011;63122;52.424;13.458;2023-06-14T09:18:16;11.75;;;3.85;;
41887;SDS011;63122;52.424;13.458;2023-06-14T09:20:12;5.97;;;2.95;;
41887;SDS011;63122;52.424;13.458;2023-06-14T09:22:11;6.35;;;3.28;;
41887;SDS011;63122;52.424;13.458;2023-06-14T09:24:13;11.48;;;3.70;;
41887;SDS011;63122;52.424;13.458;2023-06-14T09:26:12;8.43;;;3.78;;
41887;SDS011;63122;52.424;13.458;2023-06-14T09:28:09;10.43;;;4.07;;
41887;SDS011;63122;52.424;13.458;2023-06-14T09:30:05;7.45;;;3.30;;
41887;SDS011;63122;52.424;13.458;2023-06-14T09:32:04;8.13;;;3.63;;
41887;SDS011;63122;52.424;13.458;2023-06-14T09:34:02;10.32;;;3.80;;
41887;SDS011;63122;52.424;13.458;2023-06-14T09:35:58;7.80;;;3.85;;
41887;SDS011;63122;52.424;13.458;2023-06-14T09:37:53;12.23;;;3.80;;
41887;SDS011;63122;52.424;13.458;2023-06-14T09:39:51;8.35;;;3.45;;
41887;SDS011;63122;52.424;13.458;2023-06-14T09:41:53;10.95;;;4.80;;
41887;SDS011;63122;52.424;13.458;2023-06-14T09:43:51;11.15;;;3.92;;
41887;SDS011;63122;52.424;13.458;2023-06-14T09:45:49;6.13;;;4.10;;
41887;SDS011;63122;52.424;13.458;2023-06-14T09:47:50;10.07;;;3.90;;
41887;SDS011;63122;52.424;13.458;2023-06-14T09:49:58;5.80;;;3.92;;
41887;SDS011;63122;52.424;13.458;2023-06-14T09:51:54;8.88;;;4.00;;
41887;SDS011;63122;52.424;13.458;2023-06-14T09:53:52;9.60;;;4.40;;
41887;SDS011;63122;52.424;13.458;2023-06-14T09:55:54;9.43;;;4.05;;
41887;SDS011;63122;52.424;13.458;2023-06-14T09:57:54;8.43;;;3.80;;
41887;SDS011;63122;52.424;13.458;2023-06-14T09:59:52;17.38;;;3.47;;
41887;SDS011;63122;52.424;13.458;2023-06-14T10:01:52;5.43;;;3.92;;
41887;SDS011;63122;52.424;13.458;2023-06-14T10:03:54;8.07;;;3.33;;
41887;SDS011;63122;52.424;13.458;2023-06-14T10:06:01;12.05;;;3.33;;
41887;SDS011;63122;52.424;13.458;2023-06-14T10:08:03;7.68;;;3.95;;
41887;SDS011;63122;52.424;13.458;2023-06-14T10:09:59;11.02;;;4.30;;
41887;SDS011;63122;52.424;13.458;2023-06-14T10:11:57;8.13;;;3.40;;
41887;SDS011;63122;52.424;13.458;2023-06-14T10:16:15;10.07;;;3.95;;
41887;SDS011;63122;52.424;13.458;2023-06-14T10:18:19;6.55;;;3.53;;
41887;SDS011;63122;52.424;13.458;2023-06-14T10:20:21;9.75;;;3.53;;
41887;SDS011;63122;52.424;13.458;2023-06-14T10:22:24;11.10;;;3.78;;
41887;SDS011;63122;52.424;13.458;2023-06-14T10:24:26;10.68;;;3.90;;
41887;SDS011;63122;52.424;13.458;2023-06-14T10:26:25;7.05;;;3.53;;
41887;SDS011;63122;52.424;13.458;2023-06-14T10:28:23;8.23;;;4.03;;
41887;SDS011;63122;52.424;13.458;2023-06-14T10:30:25;9.98;;;4.03;;
41887;SDS011;63122;52.424;13.458;2023-06-14T10:32:21;15.10;;;3.60;;
41887;SDS011;63122;52.424;13.458;2023-06-14T10:34:27;10.65;;;3.70;;
41887;SDS011;63122;52.424;13.458;2023-06-14T10:36:27;5.68;;;3.50;;
41887;SDS011;63122;52.424;13.458;2023-06-14T10:38:29;10.85;;;3.85;;
41887;SDS011;63122;52.424;13.458;2023-06-14T10:40:30;13.68;;;3.83;;
41887;SDS011;63122;52.424;13.458;2023-06-14T10:42:28;12.23;;;3.90;;
41887;SDS011;63122;52.424;13.458;2023-06-14T10:44:33;13.43;;;4.13;;
41887;SDS011;63122;52.424;13.458;2023-06-14T10:46:35;13.23;;;4.65;;
41887;SDS011;63122;52.424;13.458;2023-06-14T10:48:30;10.95;;;3.80;;
41887;SDS011;63122;52.424;13.458;2023-06-14T10:50:29;9.43;;;3.78;;
41887;SDS011;63122;52.424;13.458;2023-06-14T10:52:26;8.32;;;3.63;;
41887;SDS011;63122;52.424;13.458;2023-06-14T10:54:27;12.25;;;3.85;;
41887;SDS011;63122;52.424;13.458;2023-06-14T10:56:27;10.15;;;4.20;;
41887;SDS011;63122;52.424;13.458;2023-06-14T10:58:31;10.13;;;3.95;;
41887;SDS011;63122;52.424;13.458;2023-06-14T11:00:31;9.38;;;4.03;;
41887;SDS011;63122;52.424;13.458;2023-06-14T11:06:53;10.00;;;4.32;;
41887;SDS011;63122;52.424;13.458;2023-06-14T11:10:05;15.10;;;4.32;;
41887;SDS011;63122;52.424;13.458;2023-06-14T11:14:48;16.70;;;4.20;;
41887;SDS011;63122;52.424;13.458;2023-06-14T11:21:32;13.63;;;3.75;;
41887;SDS011;63122;52.424;13.458;2023-06-14T11:31:15;7.72;;;3.28;;
41887;SDS011;63122;52.424;13.458;2023-06-14T11:38:47;6.60;;;3.72;;
41887;SDS011;63122;52.424;13.458;2023-06-14T12:28:12;13.10;;;3.60;;
41887;SDS011;63122;52.424;13.458;2023-06-14T12:30:20;13.18;;;3.08;;
41887;SDS011;63122;52.424;13.458;2023-06-14T12:32:15;11.40;;;3.55;;
41887;SDS011;63122;52.424;13.458;2023-06-14T12:34:26;4.57;;;2.63;;
41887;SDS011;63122;52.424;13.458;2023-06-14T12:41:58;11.85;;;3.47;;
41887;SDS011;63122;52.424;13.458;2023-06-14T12:43:59;7.45;;;3.22;;
41887;SDS011;63122;52.424;13.458;2023-06-14T12:45:56;8.00;;;3.00;;
41887;SDS011;63122;52.424;13.458;2023-06-14T12:47:52;15.50;;;3.40;;
41887;SDS011;63122;52.424;13.458;2023-06-14T12:49:48;7.93;;;2.72;;
41887;SDS011;63122;52.424;13.458;2023-06-14T12:51:43;9.95;;;3.38;;
41887;SDS011;63122;52.424;13.458;2023-06-14T12:53:45;12.00;;;3.60;;